createdAt,value
2023-04-30T00:02:22.145Z,9.70
2023-04-30T00:07:24.013Z,9.60
2023-04-30T00:12:25.814Z,9.50
2023-04-30T00:17:27.647Z,9.50
2023-04-30T00:22:29.435Z,9.90
2023-04-30T00:27:31.977Z,9.60
2023-04-30T00:32:33.841Z,9.30
2023-04-30T00:37:35.895Z,9.10
2023-04-30T00:42:37.782Z,9.00
2023-04-30T00:47:39.626Z,9.00
2023-04-30T00:52:42.496Z,8.90
2023-04-30T00:57:44.277Z,8.80
2023-04-30T01:02:46.304Z,8.80
2023-04-30T01:07:48.548Z,8.80
2023-04-30T01:12:56.498Z,8.70
2023-04-30T01:18:07.625Z,8.60
2023-04-30T01:23:12.669Z,8.50
2023-04-30T01:28:21.956Z,8.50
2023-04-30T01:33:23.833Z,8.50
2023-04-30T01:38:38.457Z,8.50
2023-04-30T01:43:50.672Z,8.30
2023-04-30T01:49:03.556Z,8.30
2023-04-30T01:54:38.570Z,8.20
2023-04-30T01:59:42.944Z,8.10
2023-04-30T02:04:44.777Z,8.00
2023-04-30T02:09:46.653Z,8.00
2023-04-30T02:14:48.431Z,8.00
2023-04-30T02:19:50.366Z,8.00
2023-04-30T02:24:55.972Z,7.90
2023-04-30T02:29:58.614Z,7.90
2023-04-30T02:35:00.701Z,7.90
2023-04-30T02:40:02.446Z,7.80
2023-04-30T02:45:04.521Z,7.80
2023-04-30T02:50:07.047Z,7.80
2023-04-30T02:55:09.133Z,7.80
2023-04-30T03:00:11.550Z,7.60
2023-04-30T03:05:15.149Z,7.50
2023-04-30T03:10:19.140Z,7.60
2023-04-30T03:15:21.298Z,7.50
2023-04-30T03:20:23.227Z,7.40
2023-04-30T03:25:25.273Z,7.20
2023-04-30T03:30:27.015Z,7.20
2023-04-30T03:35:28.837Z,7.20
2023-04-30T03:40:30.769Z,7.20
2023-04-30T03:45:32.727Z,7.20
2023-04-30T03:50:34.730Z,7.20
2023-04-30T03:55:36.625Z,7.00
2023-04-30T04:00:41.614Z,6.80
2023-04-30T04:05:43.457Z,6.80
2023-04-30T04:10:45.485Z,6.90
2023-04-30T04:15:47.372Z,7.00
2023-04-30T04:20:49.166Z,7.00
2023-04-30T04:25:51.113Z,6.80
2023-04-30T04:30:53.538Z,6.80
2023-04-30T04:35:57.871Z,6.80
2023-04-30T04:40:59.645Z,6.80
2023-04-30T04:46:01.554Z,6.90
2023-04-30T04:51:03.392Z,6.80
2023-04-30T04:56:05.985Z,6.80
2023-04-30T05:01:07.769Z,6.90
2023-04-30T05:06:09.713Z,7.00
2023-04-30T05:11:13.558Z,7.00
2023-04-30T05:16:17.438Z,7.10
2023-04-30T05:21:19.254Z,7.30
2023-04-30T05:26:21.196Z,7.10
2023-04-30T05:31:23.189Z,7.30
2023-04-30T05:36:26.186Z,7.50
2023-04-30T05:41:28.129Z,7.60
2023-04-30T05:46:30.139Z,7.80
2023-04-30T05:51:32.591Z,8.00
2023-04-30T05:56:34.398Z,8.00
2023-04-30T06:01:36.248Z,8.10
2023-04-30T06:06:38.234Z,8.30
2023-04-30T06:11:42.365Z,8.60
2023-04-30T06:16:45.466Z,8.70
2023-04-30T06:21:47.461Z,8.90
2023-04-30T06:26:49.464Z,9.10
2023-04-30T06:31:52.360Z,9.10
2023-04-30T06:36:54.160Z,9.40
2023-04-30T06:41:56.003Z,9.60
2023-04-30T06:46:57.763Z,9.70
2023-04-30T06:51:59.600Z,9.80
2023-04-30T06:57:01.969Z,10.00
2023-04-30T07:02:03.849Z,10.20
2023-04-30T07:07:05.702Z,10.50
2023-04-30T07:12:07.624Z,10.70
2023-04-30T07:17:09.422Z,10.90
2023-04-30T07:22:11.425Z,11.10
2023-04-30T07:27:13.223Z,11.40
2023-04-30T07:32:16.489Z,11.40
2023-04-30T07:37:18.388Z,11.50
2023-04-30T07:42:20.244Z,11.70
2023-04-30T07:47:22.077Z,12.00
2023-04-30T07:52:23.910Z,12.10
2023-04-30T07:57:28.741Z,12.20
2023-04-30T08:02:30.770Z,12.40
2023-04-30T08:07:32.730Z,12.50
2023-04-30T08:12:37.216Z,12.80
2023-04-30T08:17:39.351Z,12.90
2023-04-30T08:22:41.741Z,13.30
2023-04-30T08:27:43.546Z,13.40
2023-04-30T08:32:46.484Z,13.50
2023-04-30T08:37:48.642Z,13.90
2023-04-30T08:43:17.827Z,14.10
2023-04-30T08:48:21.171Z,14.20
2023-04-30T08:53:23.036Z,14.60
2023-04-30T08:58:25.059Z,14.80
2023-04-30T09:03:28.379Z,14.90
2023-04-30T09:08:47.194Z,15.20
2023-04-30T09:13:52.683Z,15.40
2023-04-30T09:18:54.933Z,15.40
2023-04-30T09:24:01.779Z,15.70
2023-04-30T09:29:08.117Z,15.90
2023-04-30T09:34:10.429Z,15.90
2023-04-30T09:39:17.846Z,16.20
2023-04-30T09:44:30.230Z,16.50
2023-04-30T09:49:32.277Z,16.40
2023-04-30T09:54:34.384Z,16.70
2023-04-30T09:59:38.119Z,16.80
2023-04-30T10:04:43.886Z,17.10
2023-04-30T10:09:54.788Z,17.00
2023-04-30T10:15:06.261Z,17.10
2023-04-30T10:20:10.900Z,17.50
2023-04-30T10:25:14.658Z,17.60
2023-04-30T10:30:16.716Z,17.70
2023-04-30T10:35:27.305Z,17.70
2023-04-30T10:40:29.121Z,18.00
2023-04-30T10:45:38.529Z,17.90
2023-04-30T10:50:46.228Z,18.00
2023-04-30T10:56:00.779Z,17.90
2023-04-30T11:01:08.490Z,17.80
2023-04-30T11:06:15.139Z,18.00
2023-04-30T11:11:21.395Z,18.30
2023-04-30T11:16:34.332Z,18.60
2023-04-30T11:22:00.863Z,18.90
2023-04-30T11:27:06.329Z,19.00
2023-04-30T11:32:08.495Z,19.10
2023-04-30T11:37:16.292Z,19.00
2023-04-30T11:42:21.346Z,19.30
2023-04-30T11:47:23.243Z,19.90
2023-04-30T11:52:25.960Z,20.10
2023-04-30T11:57:34.653Z,20.20
2023-04-30T12:02:36.947Z,20.10
2023-04-30T12:07:39.241Z,20.40
2023-04-30T12:12:42.335Z,20.40
2023-04-30T12:17:45.341Z,20.70
2023-04-30T12:22:48.988Z,20.90
2023-04-30T12:27:53.306Z,20.70
2023-04-30T12:32:58.743Z,21.00
2023-04-30T12:38:06.023Z,21.30
2023-04-30T12:43:09.163Z,21.30
2023-04-30T12:48:11.536Z,21.80
2023-04-30T12:53:13.644Z,21.90
2023-04-30T12:58:16.698Z,21.80
2023-04-30T13:03:20.975Z,22.10
2023-04-30T13:08:23.579Z,22.30
2023-04-30T13:13:26.168Z,22.60
2023-04-30T13:18:27.997Z,22.70
2023-04-30T13:23:31.930Z,22.50
2023-04-30T13:28:35.636Z,22.50
2023-04-30T13:33:37.474Z,23.00
2023-04-30T13:38:39.612Z,23.00
2023-04-30T13:43:42.953Z,22.70
2023-04-30T13:48:48.172Z,22.90
2023-04-30T13:53:49.985Z,23.10
2023-04-30T13:58:52.100Z,23.00
2023-04-30T14:03:54.127Z,23.10
2023-04-30T14:08:56.351Z,23.40
2023-04-30T14:13:58.216Z,23.50
2023-04-30T14:19:00.004Z,23.60
2023-04-30T14:24:02.072Z,23.90
2023-04-30T14:29:03.938Z,23.60
2023-04-30T14:34:05.992Z,24.20
2023-04-30T14:39:09.049Z,24.40
2023-04-30T14:44:10.894Z,24.60
2023-04-30T14:49:13.067Z,24.70
2023-04-30T14:54:15.254Z,24.80
2023-04-30T14:59:17.786Z,24.20
2023-04-30T15:04:19.573Z,24.30
2023-04-30T15:09:21.761Z,25.60
2023-04-30T15:14:23.629Z,25.60
2023-04-30T15:19:25.709Z,24.70
2023-04-30T15:24:27.542Z,25.10
2023-04-30T15:29:29.474Z,25.20
2023-04-30T15:34:31.374Z,25.70
2023-04-30T15:39:33.137Z,25.60
2023-04-30T15:44:35.234Z,24.70
2023-04-30T15:49:37.063Z,24.80
2023-04-30T15:54:38.851Z,24.90
2023-04-30T15:59:41.131Z,24.60
2023-04-30T16:04:44.489Z,24.60
2023-04-30T16:09:49.149Z,24.40
2023-04-30T16:14:51.321Z,24.20
2023-04-30T16:19:53.381Z,24.30
2023-04-30T16:24:55.467Z,23.90
2023-04-30T16:29:57.435Z,23.90
2023-04-30T16:34:59.513Z,23.90
2023-04-30T16:40:01.885Z,24.60
2023-04-30T16:45:04.163Z,24.90
2023-04-30T16:50:06.892Z,24.60
2023-04-30T16:55:10.607Z,24.30
2023-04-30T17:00:14.362Z,23.50
2023-04-30T17:05:16.649Z,23.00
2023-04-30T17:10:19.704Z,23.30
2023-04-30T17:15:21.574Z,23.50
2023-04-30T17:20:23.588Z,24.00
2023-04-30T17:25:25.878Z,24.10
2023-04-30T17:30:28.733Z,23.60
2023-04-30T17:35:30.618Z,23.10
2023-04-30T17:40:32.944Z,22.80
2023-04-30T17:45:34.813Z,22.20
2023-04-30T17:50:36.938Z,21.70
2023-04-30T17:55:38.741Z,21.50
2023-04-30T18:00:43.561Z,21.20
2023-04-30T18:05:45.465Z,21.10
2023-04-30T18:10:48.216Z,20.90
2023-04-30T18:15:51.468Z,20.70
2023-04-30T18:20:53.506Z,20.30
2023-04-30T18:25:55.254Z,20.20
2023-04-30T18:30:57.081Z,20.00
2023-04-30T18:36:01.530Z,19.70
2023-04-30T18:41:09.520Z,19.50
2023-04-30T18:46:11.543Z,19.20
2023-04-30T18:51:13.318Z,19.00
2023-04-30T18:56:15.905Z,18.80
2023-04-30T19:01:18.966Z,18.70
2023-04-30T19:06:21.048Z,18.60
2023-04-30T19:11:23.223Z,18.40
2023-04-30T19:16:25.463Z,18.40
2023-04-30T19:21:28.521Z,18.30
2023-04-30T19:26:31.444Z,18.10
2023-04-30T19:31:35.235Z,17.90
2023-04-30T19:36:37.343Z,17.90
2023-04-30T19:41:39.328Z,17.90
2023-04-30T19:46:42.441Z,17.80
2023-04-30T19:51:44.441Z,17.70
2023-04-30T19:56:46.604Z,17.70
2023-04-30T20:01:48.696Z,17.50
2023-04-30T20:06:56.945Z,17.50
2023-04-30T20:11:59.548Z,17.40
2023-04-30T20:17:02.626Z,17.30
2023-04-30T20:22:05.177Z,17.20
2023-04-30T20:27:07.463Z,17.10
2023-04-30T20:32:09.547Z,17.20
2023-04-30T20:37:11.550Z,17.10
2023-04-30T20:42:13.603Z,17.00
2023-04-30T20:47:15.538Z,16.80
2023-04-30T20:52:17.760Z,16.80
2023-04-30T20:57:19.552Z,16.80
2023-04-30T21:02:21.571Z,16.70
2023-04-30T21:07:23.366Z,16.70
2023-04-30T21:12:25.376Z,16.60
2023-04-30T21:17:27.516Z,16.60
2023-04-30T21:22:29.385Z,16.50
2023-04-30T21:27:32.246Z,16.40
2023-04-30T21:32:34.171Z,16.40
2023-04-30T21:37:36.330Z,16.30
2023-04-30T21:42:38.343Z,16.30
2023-04-30T21:47:40.614Z,16.20
2023-04-30T21:52:42.716Z,16.20
2023-04-30T21:57:47.337Z,16.00
2023-04-30T22:02:50.944Z,16.00
2023-04-30T22:07:52.814Z,16.00
2023-04-30T22:12:54.793Z,15.90
2023-04-30T22:17:56.579Z,15.80
2023-04-30T22:22:58.712Z,15.70
2023-04-30T22:28:00.846Z,15.60
2023-04-30T22:33:02.970Z,15.40
2023-04-30T22:38:05.994Z,15.40
2023-04-30T22:43:09.430Z,15.30
2023-04-30T22:48:11.320Z,15.10
2023-04-30T22:53:13.376Z,15.20
2023-04-30T22:58:15.958Z,15.00
2023-04-30T23:03:17.869Z,15.00
2023-04-30T23:08:19.684Z,15.00
2023-04-30T23:13:21.520Z,14.90
2023-04-30T23:18:27.066Z,14.80
2023-04-30T23:23:29.597Z,14.90
2023-04-30T23:28:31.405Z,14.90
2023-04-30T23:33:33.395Z,14.80
2023-04-30T23:38:35.326Z,14.90
2023-04-30T23:43:37.092Z,14.80
2023-04-30T23:48:39.533Z,14.80
2023-04-30T23:53:41.599Z,14.70
2023-04-30T23:58:44.049Z,14.70
